Time;durP1;ratioP1;P1;durP2;ratioP2;P2;SDS_P1;SDS_P2;PMS_P1;PMS_P2;Temp;Humidity;BMP_temperature;BMP_pressure;BME280_temperature;BME280_humidity;BME280_pressure;Samples;Min_cycle;Max_cycle;Signal;HPM_P1;HPM_P2
2022/01/17 00:00:39;;;;;;;18.85;9.52;;;3.00;18.60;;;;;;5062728;28;20128;-64
2022/01/17 00:03:07;;;;;;;15.43;9.07;;;3.00;18.60;;;;;;5058084;28;20496;-62
2022/01/17 00:05:35;;;;;;;15.60;8.73;;;3.00;18.90;;;;;;5059234;28;20102;-64
2022/01/17 00:08:04;;;;;;;16.17;10.32;;;3.00;19.10;;;;;;5061325;28;20056;-63
2022/01/17 00:10:32;;;;;;;14.50;9.40;;;2.90;19.50;;;;;;5061722;28;20131;-63
2022/01/17 00:13:00;;;;;;;15.15;9.27;;;2.90;20.50;;;;;;5056856;28;20091;-62
2022/01/17 00:15:32;;;;;;;17.63;10.43;;;2.80;20.90;;;;;;5059150;28;20548;-62
2022/01/17 00:18:27;;;;;;;15.55;10.23;;;2.80;22.10;;;;;;5059165;28;20057;-63
2022/01/17 00:20:56;;;;;;;14.93;9.98;;;2.80;21.60;;;;;;5062255;28;20123;-63
2022/01/17 00:23:24;;;;;;;18.83;11.70;;;2.80;22.10;;;;;;5060897;28;20067;-64
2022/01/17 00:25:52;;;;;;;18.63;11.32;;;2.80;22.40;;;;;;5065122;28;20155;-63
2022/01/17 00:28:20;;;;;;;23.92;12.55;;;2.80;22.30;;;;;;5059290;28;20131;-63
2022/01/17 00:30:48;;;;;;;22.85;13.38;;;2.80;22.90;;;;;;5059098;28;20322;-65
2022/01/17 00:33:18;;;;;;;23.20;13.35;;;2.80;22.10;;;;;;5052419;28;20088;-64
2022/01/17 00:35:46;;;;;;;26.80;14.52;;;2.80;22.40;;;;;;5060383;28;20135;-63
2022/01/17 00:38:17;;;;;;;21.20;13.57;;;2.80;22.50;;;;;;5062863;28;20135;-64
2022/01/17 00:40:46;;;;;;;25.33;14.25;;;2.80;22.80;;;;;;5062697;28;20041;-62
2022/01/17 00:43:15;;;;;;;28.30;15.38;;;2.80;22.20;;;;;;5050493;28;20052;-64
2022/01/17 00:45:44;;;;;;;24.02;15.27;;;2.70;22.50;;;;;;5059894;28;20079;-63
2022/01/17 00:48:13;;;;;;;26.92;16.00;;;2.70;22.10;;;;;;5058602;28;20186;-63
2022/01/17 00:50:44;;;;;;;27.95;16.10;;;2.70;22.60;;;;;;5062162;28;20536;-62
2022/01/17 00:53:11;;;;;;;29.85;17.10;;;2.60;22.90;;;;;;5053387;28;20210;-62
2022/01/17 00:55:40;;;;;;;31.58;18.00;;;2.60;23.00;;;;;;5065016;28;20044;-63
2022/01/17 00:58:09;;;;;;;28.45;16.88;;;2.60;22.30;;;;;;5056123;28;20135;-63
2022/01/17 01:00:38;;;;;;;33.17;19.27;;;2.60;22.40;;;;;;5063597;28;20072;-63
2022/01/17 01:03:06;;;;;;;30.95;17.45;;;2.50;22.00;;;;;;5057040;28;20044;-62
2022/01/17 01:05:34;;;;;;;30.52;18.65;;;2.50;22.50;;;;;;5061637;28;20048;-62
2022/01/17 01:08:05;;;;;;;35.53;18.90;;;2.50;22.20;;;;;;5061607;28;20133;-62
2022/01/17 01:10:34;;;;;;;33.28;18.77;;;2.40;22.40;;;;;;5060155;28;20064;-62
2022/01/17 01:13:03;;;;;;;35.83;19.77;;;2.40;22.30;;;;;;5055273;28;20515;-63
2022/01/17 01:15:46;;;;;;;37.67;19.88;;;2.40;22.40;;;;;;5061005;28;20048;-62
2022/01/17 01:18:18;;;;;;;39.53;19.00;;;2.40;22.00;;;;;;5056717;28;20059;-63
2022/01/17 01:29:01;;;;;;;40.20;20.67;;;2.30;22.30;;;;;;5059915;28;20063;-62
2022/01/17 01:31:40;;;;;;;40.55;22.33;;;2.30;22.30;;;;;;5062840;28;20064;-63
2022/01/17 01:34:10;;;;;;;41.85;22.30;;;2.30;22.30;;;;;;5055833;28;20048;-63
2022/01/17 01:36:38;;;;;;;35.28;20.58;;;2.30;22.30;;;;;;5059363;28;20081;-63
2022/01/17 01:39:09;;;;;;;38.38;21.02;;;2.30;22.50;;;;;;5060229;28;20678;-63
2022/01/17 01:41:42;;;;;;;35.33;20.40;;;2.30;22.10;;;;;;5060626;28;20044;-62
2022/01/17 01:44:14;;;;;;;40.83;21.95;;;2.30;21.80;;;;;;5055865;28;20554;-62
2022/01/17 01:46:44;;;;;;;41.03;22.08;;;2.30;22.00;;;;;;5062900;28;20052;-62
2022/01/17 01:49:13;;;;;;;37.10;21.58;;;2.30;22.20;;;;;;5055680;28;20139;-62
2022/01/17 01:51:41;;;;;;;40.03;21.85;;;2.30;22.10;;;;;;5060577;28;20049;-62
2022/01/17 01:54:11;;;;;;;40.85;21.17;;;2.30;22.30;;;;;;5058356;28;20162;-62
2022/01/17 01:56:40;;;;;;;39.17;21.52;;;2.30;22.30;;;;;;5057281;28;20041;-62
2022/01/17 01:59:08;;;;;;;36.38;20.73;;;2.30;22.40;;;;;;5062022;28;20052;-62
2022/01/17 02:01:37;;;;;;;36.22;20.25;;;2.30;22.50;;;;;;5058056;28;20534;-62
2022/01/17 02:04:06;;;;;;;38.40;20.52;;;2.30;23.60;;;;;;5057228;28;20037;-62
2022/01/17 02:06:34;;;;;;;42.20;21.75;;;2.30;23.80;;;;;;5059757;28;20063;-63
2022/01/17 02:09:05;;;;;;;35.35;20.67;;;2.30;24.50;;;;;;5057845;28;20140;-62
2022/01/17 02:11:36;;;;;;;38.42;21.70;;;2.30;24.70;;;;;;5060585;28;20155;-62
2022/01/17 02:14:05;;;;;;;39.38;21.52;;;2.20;26.80;;;;;;5057397;28;20121;-62
2022/01/17 02:16:34;;;;;;;39.30;22.20;;;2.20;27.40;;;;;;5063743;28;20045;-62
2022/01/17 02:19:02;;;;;;;42.83;22.20;;;2.10;27.60;;;;;;5060085;28;20461;-62
2022/01/17 02:21:45;;;;;;;42.58;22.27;;;2.10;28.00;;;;;;5060394;28;20131;-62
2022/01/17 02:24:16;;;;;;;41.95;22.45;;;2.10;27.90;;;;;;5054728;28;20068;-62
2022/01/17 02:26:44;;;;;;;42.00;22.40;;;2.10;28.70;;;;;;5062365;28;20123;-62
2022/01/17 02:29:13;;;;;;;42.28;21.65;;;2.10;29.20;;;;;;5056973;28;20056;-63
2022/01/17 02:31:45;;;;;;;39.63;22.73;;;2.10;29.70;;;;;;5063262;28;20101;-62
2022/01/17 02:34:14;;;;;;;40.95;22.80;;;2.10;29.90;;;;;;5056349;28;20049;-62
2022/01/17 02:36:43;;;;;;;43.58;22.60;;;2.00;29.70;;;;;;5060397;28;20159;-62
2022/01/17 02:39:13;;;;;;;39.95;22.10;;;2.00;29.90;;;;;;5059280;28;20044;-63
2022/01/17 02:41:43;;;;;;;46.10;23.67;;;1.90;31.30;;;;;;5056521;28;20087;-65
2022/01/17 02:44:11;;;;;;;44.50;23.05;;;2.00;31.40;;;;;;5057465;28;20130;-63
2022/01/17 02:46:40;;;;;;;40.40;22.55;;;1.90;31.20;;;;;;5066551;28;20040;-63
2022/01/17 02:49:08;;;;;;;44.92;23.63;;;1.90;31.20;;;;;;5060103;28;20079;-62
2022/01/17 02:51:36;;;;;;;41.08;22.13;;;1.90;30.60;;;;;;5061622;28;20045;-63
2022/01/17 02:54:06;;;;;;;45.67;25.33;;;1.90;30.00;;;;;;5060397;28;20049;-63
2022/01/17 02:56:34;;;;;;;42.15;22.92;;;1.90;29.90;;;;;;5062988;28;20080;-63
2022/01/17 02:59:03;;;;;;;41.70;22.95;;;2.00;30.30;;;;;;5058222;28;20048;-63
2022/01/17 03:01:31;;;;;;;40.33;22.75;;;2.00;29.40;;;;;;5061077;28;20068;-61
2022/01/17 03:04:00;;;;;;;44.47;23.75;;;1.90;28.90;;;;;;5062702;28;20127;-61
2022/01/17 03:06:29;;;;;;;41.85;22.98;;;2.00;27.80;;;;;;5061413;28;20072;-61
2022/01/17 03:08:57;;;;;;;41.50;22.85;;;1.90;28.10;;;;;;5063036;28;20533;-62
2022/01/17 03:11:28;;;;;;;40.95;23.42;;;1.90;28.80;;;;;;5061907;28;20040;-61
2022/01/17 03:13:58;;;;;;;40.22;21.05;;;1.90;27.80;;;;;;5061560;28;20041;-62
2022/01/17 03:16:30;;;;;;;43.90;23.20;;;1.90;27.90;;;;;;5064119;28;20073;-62
2022/01/17 03:18:59;;;;;;;41.70;22.90;;;1.90;27.80;;;;;;5059051;28;20586;-62
2022/01/17 03:21:32;;;;;;;46.10;24.08;;;1.90;27.90;;;;;;5062489;28;20146;-61
2022/01/17 03:24:00;;;;;;;40.63;23.60;;;1.90;27.80;;;;;;5061932;28;20049;-62
2022/01/17 03:26:30;;;;;;;38.70;22.50;;;1.90;27.80;;;;;;5062186;28;20072;-62
2022/01/17 03:29:00;;;;;;;44.45;22.75;;;1.90;27.80;;;;;;5061609;28;20123;-61
2022/01/17 03:31:28;;;;;;;42.03;23.63;;;1.80;27.00;;;;;;5060581;28;20054;-61
2022/01/17 03:33:56;;;;;;;40.78;22.63;;;1.80;27.70;;;;;;5057680;28;20048;-62
2022/01/17 03:36:25;;;;;;;41.25;22.80;;;1.90;27.40;;;;;;5063590;28;20044;-62
2022/01/17 03:38:54;;;;;;;41.30;22.73;;;1.80;27.00;;;;;;5061454;28;20191;-62
2022/01/17 03:41:24;;;;;;;40.33;21.67;;;1.90;27.50;;;;;;5062231;28;20033;-63
2022/01/17 03:43:53;;;;;;;48.67;24.10;;;1.80;27.00;;;;;;5060413;28;20748;-62
2022/01/17 03:46:21;;;;;;;41.67;23.13;;;1.90;27.50;;;;;;5062546;28;20118;-63
2022/01/17 03:48:49;;;;;;;40.45;21.88;;;1.90;26.80;;;;;;5062263;28;20128;-62
2022/01/17 03:51:17;;;;;;;38.42;22.30;;;1.90;27.30;;;;;;5063104;28;20140;-63
2022/01/17 03:53:48;;;;;;;41.90;21.67;;;2.00;26.90;;;;;;5057259;28;20128;-62
2022/01/17 03:56:18;;;;;;;39.90;22.88;;;2.00;26.60;;;;;;5055068;28;20064;-63
2022/01/17 03:58:46;;;;;;;40.33;21.33;;;2.00;25.90;;;;;;5062478;28;20079;-63
2022/01/17 04:01:16;;;;;;;41.33;21.85;;;2.10;26.20;;;;;;5059558;28;20550;-62
2022/01/17 04:03:46;;;;;;;37.15;19.83;;;2.10;25.40;;;;;;5058216;28;20148;-62
2022/01/17 04:06:15;;;;;;;37.00;19.92;;;2.10;25.00;;;;;;5062294;28;20094;-62
2022/01/17 04:08:43;;;;;;;35.47;20.30;;;2.20;25.00;;;;;;5056642;28;20132;-63
2022/01/17 04:11:13;;;;;;;32.88;18.38;;;2.20;25.10;;;;;;5062085;28;20039;-63
2022/01/17 04:13:41;;;;;;;36.28;20.55;;;2.20;25.60;;;;;;5056508;28;20049;-62
2022/01/17 04:16:11;;;;;;;36.75;19.55;;;2.20;25.20;;;;;;5064114;28;20047;-62
2022/01/17 04:18:41;;;;;;;36.83;18.83;;;2.20;24.80;;;;;;5054482;28;20041;-63
2022/01/17 04:21:10;;;;;;;37.35;19.85;;;2.20;24.60;;;;;;5063869;28;20135;-63
2022/01/17 04:23:40;;;;;;;34.60;19.52;;;2.20;24.60;;;;;;5056548;28;20066;-63
2022/01/17 04:26:08;;;;;;;31.85;18.00;;;2.20;24.70;;;;;;5060792;28;20049;-62
2022/01/17 04:28:36;;;;;;;34.80;17.58;;;2.20;25.60;;;;;;5062986;28;20076;-61
2022/01/17 04:31:08;;;;;;;36.50;19.75;;;2.20;25.20;;;;;;5062813;28;20036;-63
2022/01/17 04:33:36;;;;;;;32.47;17.80;;;2.20;25.50;;;;;;5057875;28;20051;-62
2022/01/17 04:36:07;;;;;;;33.22;18.48;;;2.20;25.90;;;;;;5059999;28;20504;-62
2022/01/17 04:38:36;;;;;;;36.88;17.80;;;2.30;25.80;;;;;;5061081;28;20144;-62
2022/01/17 04:41:12;;;;;;;29.20;17.58;;;2.30;25.50;;;;;;5062957;28;20040;-64
2022/01/17 04:44:03;;;;;;;29.92;16.70;;;2.40;25.20;;;;;;5059857;28;20593;-62
2022/01/17 04:46:37;;;;;;;31.70;18.02;;;2.40;24.80;;;;;;5061798;28;20119;-62
2022/01/17 04:49:05;;;;;;;29.25;15.32;;;2.40;24.80;;;;;;5055211;28;20044;-63
2022/01/17 04:51:34;;;;;;;32.28;16.90;;;2.40;24.90;;;;;;5059751;28;20122;-62
2022/01/17 04:54:25;;;;;;;30.73;16.70;;;2.40;24.90;;;;;;5056345;28;20087;-62
2022/01/17 04:56:53;;;;;;;30.17;16.52;;;2.40;25.00;;;;;;5060272;28;20036;-62
2022/01/17 04:59:21;;;;;;;29.40;16.38;;;2.40;25.00;;;;;;5054345;28;21157;-62
2022/01/17 05:01:53;;;;;;;33.03;17.73;;;2.40;24.80;;;;;;5059887;28;20046;-62
2022/01/17 05:04:21;;;;;;;28.98;16.10;;;2.40;24.80;;;;;;5060584;28;20045;-62
2022/01/17 05:06:50;;;;;;;29.73;16.55;;;2.40;24.80;;;;;;5061349;28;20083;-62
2022/01/17 05:09:18;;;;;;;28.60;16.75;;;2.40;24.80;;;;;;5056860;28;20435;-62
2022/01/17 05:11:47;;;;;;;27.45;15.90;;;2.50;24.80;;;;;;5061184;28;20052;-62
2022/01/17 05:14:15;;;;;;;29.10;15.80;;;2.40;24.60;;;;;;5060991;28;20090;-62
2022/01/17 05:16:47;;;;;;;30.38;15.35;;;2.40;24.50;;;;;;5059471;28;20559;-62
2022/01/17 05:22:03;;;;;;;25.85;14.98;;;2.50;24.30;;;;;;5061210;28;20072;-62
2022/01/17 05:24:31;;;;;;;23.60;14.15;;;2.50;24.70;;;;;;5057242;28;20053;-62
2022/01/17 05:26:59;;;;;;;24.33;14.43;;;2.50;24.80;;;;;;5059250;28;20508;-62
2022/01/17 05:29:27;;;;;;;26.67;13.57;;;2.50;24.40;;;;;;5057656;28;20151;-62
2022/01/17 05:31:56;;;;;;;24.75;14.13;;;2.60;24.40;;;;;;5062349;28;20087;-63
2022/01/17 05:34:24;;;;;;;29.17;14.35;;;2.50;24.80;;;;;;5054959;28;20140;-62
2022/01/17 05:36:53;;;;;;;25.08;14.13;;;2.60;24.90;;;;;;5062532;28;20048;-62
2022/01/17 05:39:22;;;;;;;24.25;14.73;;;2.60;24.90;;;;;;5062082;28;20102;-62
2022/01/17 05:41:50;;;;;;;25.48;14.73;;;2.60;24.90;;;;;;5063387;28;20041;-62
2022/01/17 05:44:18;;;;;;;28.08;14.77;;;2.60;24.90;;;;;;5061169;28;20395;-62
2022/01/17 05:46:46;;;;;;;24.70;13.50;;;2.60;24.90;;;;;;5063673;28;20577;-61
2022/01/17 05:49:14;;;;;;;24.02;14.23;;;2.60;25.00;;;;;;5060560;28;20056;-61
2022/01/17 05:51:43;;;;;;;23.95;13.82;;;2.60;25.10;;;;;;5063290;28;20060;-63
2022/01/17 05:54:11;;;;;;;28.88;15.55;;;2.60;25.30;;;;;;5046394;28;20135;-63
2022/01/17 05:56:41;;;;;;;27.70;13.85;;;2.70;25.50;;;;;;5059634;28;20044;-63
2022/01/17 05:59:09;;;;;;;24.63;13.90;;;2.70;25.40;;;;;;5059169;28;20083;-63
2022/01/17 06:01:39;;;;;;;26.58;15.10;;;2.70;25.50;;;;;;5061410;28;20475;-63
2022/01/17 06:04:07;;;;;;;25.02;14.45;;;2.70;25.90;;;;;;5059418;28;20040;-61
2022/01/17 06:06:35;;;;;;;24.40;13.20;;;2.70;25.90;;;;;;5059714;28;20239;-61
2022/01/17 06:09:03;;;;;;;23.70;14.00;;;2.70;25.90;;;;;;5063506;28;20083;-63
2022/01/17 06:11:33;;;;;;;23.33;12.43;;;2.80;26.20;;;;;;5058840;28;20070;-62
2022/01/17 06:14:04;;;;;;;19.92;11.63;;;2.80;26.10;;;;;;5057249;28;20168;-62
2022/01/17 06:16:32;;;;;;;22.00;11.70;;;2.80;26.10;;;;;;5058431;28;20052;-62
2022/01/17 06:19:05;;;;;;;19.02;12.02;;;2.80;26.30;;;;;;5063535;28;20047;-62
2022/01/17 06:21:33;;;;;;;19.65;11.48;;;2.80;26.10;;;;;;5066320;28;20066;-63
2022/01/17 06:24:02;;;;;;;20.60;11.57;;;2.80;26.10;;;;;;5061676;28;20069;-62
2022/01/17 06:26:32;;;;;;;21.00;11.73;;;2.80;26.50;;;;;;5063743;28;20037;-62
2022/01/17 06:29:02;;;;;;;19.40;11.50;;;2.80;26.50;;;;;;5066287;28;20048;-62
2022/01/17 06:31:30;;;;;;;18.98;10.82;;;2.80;26.10;;;;;;5060926;28;20049;-62
2022/01/17 06:33:58;;;;;;;19.58;11.65;;;2.80;27.10;;;;;;5059506;28;20139;-62
2022/01/17 06:36:26;;;;;;;21.75;12.35;;;2.80;26.50;;;;;;5064452;28;21282;-62
2022/01/17 06:38:55;;;;;;;23.67;12.30;;;2.90;27.30;;;;;;5064178;28;20123;-63
2022/01/17 06:41:24;;;;;;;21.25;12.35;;;2.90;26.70;;;;;;5064270;28;20080;-63
2022/01/17 06:43:52;;;;;;;20.67;11.23;;;2.90;26.90;;;;;;5061222;28;20580;-62
2022/01/17 06:46:22;;;;;;;18.70;11.32;;;2.90;26.50;;;;;;5056685;28;20079;-63
2022/01/17 06:48:50;;;;;;;17.20;11.02;;;3.00;26.20;;;;;;5056338;28;20073;-63
2022/01/17 06:51:18;;;;;;;18.08;10.52;;;3.00;26.10;;;;;;5057897;28;20131;-63
2022/01/17 06:53:48;;;;;;;20.08;11.60;;;3.00;26.10;;;;;;5061496;28;20048;-63
2022/01/17 06:56:16;;;;;;;21.40;12.93;;;3.00;26.10;;;;;;5063221;28;20060;-63
2022/01/17 06:58:44;;;;;;;17.35;10.88;;;3.00;26.10;;;;;;5061054;28;20065;-64
2022/01/17 07:01:13;;;;;;;18.30;11.23;;;3.00;26.00;;;;;;5067228;28;20068;-62
2022/01/17 07:03:43;;;;;;;20.70;11.43;;;3.10;25.80;;;;;;5059359;28;20074;-62
2022/01/17 07:06:11;;;;;;;19.27;11.27;;;3.10;26.10;;;;;;5064567;28;20500;-63
2022/01/17 07:08:39;;;;;;;19.95;10.88;;;3.10;25.80;;;;;;5065707;28;20041;-62
2022/01/17 07:11:07;;;;;;;19.17;11.52;;;3.10;25.70;;;;;;5068319;28;20048;-63
2022/01/17 07:13:35;;;;;;;22.65;11.43;;;3.10;26.00;;;;;;5064491;28;20464;-62
2022/01/17 07:16:04;;;;;;;18.15;10.70;;;3.10;25.80;;;;;;5063717;28;20473;-63
2022/01/17 07:18:32;;;;;;;18.65;10.35;;;3.10;25.30;;;;;;5059192;28;20064;-62
2022/01/17 07:21:01;;;;;;;19.23;11.32;;;3.10;25.60;;;;;;5064604;28;20072;-63
2022/01/17 07:23:29;;;;;;;19.80;11.35;;;3.20;25.70;;;;;;5056257;28;20087;-63
2022/01/17 07:25:57;;;;;;;18.92;11.15;;;3.10;25.60;;;;;;5064927;28;20075;-63
2022/01/17 07:28:28;;;;;;;16.05;10.57;;;3.20;25.40;;;;;;5062017;28;20045;-61
2022/01/17 07:30:56;;;;;;;17.38;10.60;;;3.20;25.60;;;;;;5060952;28;20083;-61
2022/01/17 07:33:26;;;;;;;16.70;10.40;;;3.20;24.80;;;;;;5063900;28;20083;-62
2022/01/17 07:35:55;;;;;;;18.13;10.80;;;3.20;25.20;;;;;;5065505;28;20059;-61
2022/01/17 07:38:24;;;;;;;16.92;9.60;;;3.20;24.60;;;;;;5064714;28;20068;-63
2022/01/17 07:40:53;;;;;;;16.40;9.50;;;3.20;24.00;;;;;;5067125;28;20068;-63
2022/01/17 07:43:21;;;;;;;16.33;10.20;;;3.30;24.00;;;;;;5063458;28;20577;-63
2022/01/17 07:46:03;;;;;;;19.33;11.18;;;3.30;23.90;;;;;;5055187;28;20049;-63
2022/01/17 07:51:17;;;;;;;16.70;9.93;;;3.40;22.30;;;;;;5050330;28;20611;-63
2022/01/17 07:53:46;;;;;;;15.43;8.63;;;3.40;23.90;;;;;;5059384;28;20053;-64
2022/01/17 07:56:15;;;;;;;13.13;8.13;;;3.30;22.90;;;;;;5061031;28;20063;-61
2022/01/17 07:58:44;;;;;;;15.88;9.00;;;3.30;22.90;;;;;;5062969;28;20132;-61
2022/01/17 08:01:12;;;;;;;16.98;9.77;;;3.30;23.50;;;;;;5065360;28;20064;-63
2022/01/17 08:03:41;;;;;;;16.92;10.07;;;3.20;23.70;;;;;;5059844;28;20053;-63
2022/01/17 08:06:09;;;;;;;13.02;9.25;;;3.30;23.80;;;;;;5059166;28;20052;-62
2022/01/17 08:08:37;;;;;;;15.50;9.65;;;3.20;23.60;;;;;;5059304;28;20087;-65
2022/01/17 08:11:06;;;;;;;16.30;10.00;;;3.30;23.70;;;;;;5063434;28;20127;-63
2022/01/17 08:13:34;;;;;;;15.00;10.10;;;3.30;23.00;;;;;;5057311;28;20162;-63
2022/01/17 08:16:03;;;;;;;17.38;10.23;;;3.30;22.80;;;;;;5064318;28;20083;-63
2022/01/17 08:18:32;;;;;;;16.50;9.52;;;3.40;23.30;;;;;;5060710;28;20083;-62
2022/01/17 08:21:00;;;;;;;14.23;9.48;;;3.40;23.30;;;;;;5065544;28;20084;-63
2022/01/17 08:23:28;;;;;;;16.33;10.10;;;3.40;22.70;;;;;;5059993;28;20400;-63
2022/01/17 08:25:56;;;;;;;15.93;9.77;;;3.40;23.30;;;;;;5063181;28;20075;-64
2022/01/17 08:28:26;;;;;;;14.77;9.77;;;3.40;22.60;;;;;;5060130;28;20125;-62
2022/01/17 08:30:54;;;;;;;15.55;9.45;;;3.40;22.10;;;;;;5064106;28;20104;-62
2022/01/17 08:33:42;;;;;;;19.42;9.55;;;3.40;22.70;;;;;;5062222;28;20063;-61
2022/01/17 08:36:11;;;;;;;20.80;10.57;;;3.30;23.40;;;;;;5063678;28;20048;-62
2022/01/17 08:38:45;;;;;;;18.30;10.15;;;3.40;23.20;;;;;;5058890;28;20045;-62
2022/01/17 08:41:14;;;;;;;19.75;10.85;;;3.50;23.20;;;;;;5062139;28;20128;-63
2022/01/17 08:43:43;;;;;;;17.40;10.45;;;3.50;22.20;;;;;;5053072;28;20128;-63
2022/01/17 08:46:17;;;;;;;17.98;11.02;;;3.50;22.10;;;;;;5064426;28;20040;-63
2022/01/17 08:48:45;;;;;;;17.23;9.93;;;3.60;22.20;;;;;;5060665;28;20439;-63
2022/01/17 08:51:13;;;;;;;19.30;9.80;;;3.60;22.10;;;;;;5065398;28;20523;-62
2022/01/17 08:53:41;;;;;;;16.50;10.10;;;3.60;22.10;;;;;;5060695;28;20179;-63
2022/01/17 08:56:09;;;;;;;14.15;9.18;;;3.60;22.10;;;;;;5063098;28;20148;-63
2022/01/17 08:58:37;;;;;;;15.10;9.68;;;3.70;22.20;;;;;;5061392;28;20040;-62
2022/01/17 09:01:08;;;;;;;19.02;11.35;;;3.60;22.10;;;;;;5061937;28;20130;-62
2022/01/17 09:03:36;;;;;;;14.40;9.10;;;3.80;22.40;;;;;;5062436;28;20057;-62
2022/01/17 09:06:04;;;;;;;14.77;9.20;;;3.80;22.20;;;;;;5057209;28;20048;-62
2022/01/17 09:08:32;;;;;;;18.35;10.00;;;3.70;21.50;;;;;;5061481;28;20052;-62
2022/01/17 09:11:00;;;;;;;18.25;11.15;;;3.90;21.70;;;;;;5062944;28;20069;-62
2022/01/17 09:13:28;;;;;;;16.90;10.15;;;4.00;21.10;;;;;;5062106;28;20068;-62
2022/01/17 09:15:56;;;;;;;18.98;10.70;;;4.20;19.70;;;;;;5058723;28;20496;-63
2022/01/17 09:18:26;;;;;;;16.00;9.98;;;4.20;18.70;;;;;;5059117;28;20068;-62
2022/01/17 09:20:54;;;;;;;14.57;9.00;;;4.00;19.00;;;;;;5064526;28;20121;-62
2022/01/17 09:23:22;;;;;;;13.55;8.20;;;4.00;19.00;;;;;;5054970;28;20049;-63
2022/01/17 09:25:52;;;;;;;13.23;8.15;;;4.10;19.10;;;;;;5061097;28;20056;-62
2022/01/17 09:28:21;;;;;;;16.30;8.38;;;4.10;19.10;;;;;;5056035;28;20140;-62
2022/01/17 09:30:52;;;;;;;13.90;8.75;;;4.10;19.40;;;;;;5064201;28;20113;-61
2022/01/17 09:33:21;;;;;;;13.10;7.50;;;4.10;19.10;;;;;;5064144;28;20551;-62
2022/01/17 09:35:50;;;;;;;11.27;7.40;;;4.10;19.00;;;;;;5052943;28;20143;-63
2022/01/17 09:38:20;;;;;;;10.82;7.32;;;4.20;18.60;;;;;;5057107;28;20048;-63
2022/01/17 09:40:48;;;;;;;12.75;7.28;;;4.20;18.20;;;;;;5058131;28;20048;-62
2022/01/17 09:43:37;;;;;;;11.13;7.07;;;4.20;18.50;;;;;;5061534;28;20065;-62
2022/01/17 09:46:05;;;;;;;12.57;7.53;;;4.30;18.50;;;;;;5063704;28;20513;-62
2022/01/17 09:48:37;;;;;;;16.45;8.93;;;4.20;19.10;;;;;;5054217;28;20052;-62
2022/01/17 09:51:17;;;;;;;11.75;7.65;;;4.20;19.20;;;;;;5060907;28;20150;-62
2022/01/17 09:53:46;;;;;;;13.98;8.95;;;4.20;19.10;;;;;;5062653;28;20052;-62
2022/01/17 09:56:14;;;;;;;14.90;9.45;;;4.30;19.10;;;;;;5056655;28;20101;-62
2022/01/17 09:58:45;;;;;;;14.88;8.65;;;4.30;19.00;;;;;;5055822;28;20136;-62
2022/01/17 10:01:14;;;;;;;12.10;8.15;;;4.30;19.10;;;;;;5063167;28;20040;-62
2022/01/17 10:03:43;;;;;;;12.50;7.90;;;4.30;19.10;;;;;;5055702;28;20060;-62
2022/01/17 10:06:12;;;;;;;15.35;9.30;;;4.20;19.10;;;;;;5061462;28;20079;-62
2022/01/17 10:08:41;;;;;;;13.13;7.15;;;4.30;19.50;;;;;;5060847;28;20044;-62
2022/01/17 10:11:14;;;;;;;14.43;7.07;;;4.30;19.20;;;;;;5064383;28;20129;-62
2022/01/17 10:13:45;;;;;;;11.73;7.20;;;4.30;19.30;;;;;;5056615;28;20118;-62
2022/01/17 10:16:15;;;;;;;10.75;7.60;;;4.30;20.00;;;;;;5060641;28;20503;-62
2022/01/17 10:18:48;;;;;;;14.27;7.90;;;4.20;19.10;;;;;;5057882;28;20040;-62
2022/01/17 10:21:29;;;;;;;12.05;7.38;;;4.30;19.20;;;;;;5055773;28;20061;-63
2022/01/17 10:27:03;;;;;;;10.95;6.78;;;4.40;19.00;;;;;;5057048;28;20048;-62
2022/01/17 10:35:23;;;;;;;10.23;6.45;;;4.20;19.50;;;;;;5051402;28;20094;-62
2022/01/17 10:38:01;;;;;;;12.02;7.47;;;4.20;20.50;;;;;;5058481;28;20071;-62
2022/01/17 10:40:31;;;;;;;12.23;7.20;;;4.20;20.30;;;;;;5061382;28;20125;-62
2022/01/17 10:43:00;;;;;;;11.80;7.35;;;4.20;19.80;;;;;;5061500;28;20164;-62
2022/01/17 10:45:36;;;;;;;11.52;7.78;;;4.20;20.60;;;;;;5054937;28;20036;-62
2022/01/17 10:48:06;;;;;;;13.50;8.05;;;4.00;20.80;;;;;;5059703;28;20048;-62
2022/01/17 10:50:37;;;;;;;13.38;8.07;;;4.00;21.50;;;;;;5059500;28;20095;-62
2022/01/17 10:53:09;;;;;;;15.02;8.65;;;4.00;22.40;;;;;;5061470;28;20045;-62
2022/01/17 10:55:39;;;;;;;12.30;7.50;;;4.00;22.40;;;;;;5055057;28;20110;-62
2022/01/17 10:58:13;;;;;;;11.68;7.55;;;4.10;21.90;;;;;;5059484;28;20414;-62
2022/01/17 11:00:43;;;;;;;10.23;6.80;;;4.10;22.10;;;;;;5080976;28;20499;-62
2022/01/17 11:03:13;;;;;;;13.38;8.43;;;4.20;21.50;;;;;;5084589;28;20056;-62
2022/01/17 11:05:44;;;;;;;12.80;6.95;;;4.20;21.70;;;;;;5081669;28;20494;-62
2022/01/17 11:08:18;;;;;;;10.93;7.88;;;4.00;21.60;;;;;;5086097;28;20043;-62
2022/01/17 11:10:47;;;;;;;11.43;6.97;;;4.10;22.50;;;;;;5084163;28;20128;-63
2022/01/17 11:13:17;;;;;;;11.82;7.55;;;4.10;21.20;;;;;;5084280;28;20106;-62
2022/01/17 11:15:49;;;;;;;15.70;10.68;;;4.00;22.40;;;;;;5082314;28;20068;-63
2022/01/17 11:18:21;;;;;;;11.88;7.47;;;4.10;22.00;;;;;;5084140;28;20047;-63
2022/01/17 11:20:52;;;;;;;12.88;7.47;;;4.00;22.80;;;;;;5084133;28;20040;-62
2022/01/17 11:23:22;;;;;;;10.95;7.20;;;4.10;23.60;;;;;;5085157;28;20055;-62
2022/01/17 11:25:54;;;;;;;10.48;7.45;;;4.00;24.10;;;;;;5083657;28;20178;-63
2022/01/17 11:28:25;;;;;;;12.93;8.13;;;4.10;23.00;;;;;;5071781;28;20047;-62
2022/01/17 11:30:55;;;;;;;10.02;7.65;;;4.10;23.80;;;;;;5107203;28;20043;-63
2022/01/17 11:33:24;;;;;;;11.40;7.78;;;4.10;22.60;;;;;;5105903;27;20051;-63
2022/01/17 11:35:53;;;;;;;12.32;7.22;;;4.20;23.40;;;;;;5104551;27;20062;-63
2022/01/17 11:38:26;;;;;;;13.18;8.02;;;4.20;22.60;;;;;;5108550;27;20031;-63
2022/01/17 11:40:54;;;;;;;12.45;8.00;;;4.30;22.60;;;;;;5108422;27;20686;-63
2022/01/17 11:43:32;;;;;;;10.90;7.50;;;4.30;21.60;;;;;;5106937;27;20239;-63
2022/01/17 11:46:03;;;;;;;9.90;7.10;;;4.20;22.90;;;;;;5104415;28;20055;-64
2022/01/17 11:48:32;;;;;;;10.60;7.85;;;4.50;22.20;;;;;;5104134;28;20716;-63
2022/01/17 11:51:16;;;;;;;12.40;7.60;;;4.40;21.80;;;;;;5020714;28;20056;-63
2022/01/17 11:53:49;;;;;;;10.77;7.03;;;4.60;21.50;;;;;;5019567;28;20497;-62
2022/01/17 11:56:45;;;;;;;9.93;6.72;;;4.40;22.60;;;;;;5019247;28;20049;-62
2022/01/17 11:59:41;;;;;;;10.45;7.20;;;4.50;21.70;;;;;;5020142;28;20140;-62
2022/01/17 12:02:26;;;;;;;10.90;7.15;;;4.30;22.60;;;;;;5021880;28;20053;-63
2022/01/17 12:05:42;;;;;;;11.38;6.53;;;4.60;22.80;;;;;;5014577;28;20515;-63
2022/01/17 12:08:15;;;;;;;10.98;7.40;;;4.50;21.70;;;;;;5020785;28;20115;-63
2022/01/17 12:10:58;;;;;;;10.93;7.13;;;4.60;21.20;;;;;;5019018;28;20049;-62
2022/01/17 12:13:40;;;;;;;11.63;6.97;;;4.50;21.70;;;;;;5020750;28;20147;-63
2022/01/17 12:16:18;;;;;;;10.77;7.13;;;4.50;21.30;;;;;;5017442;28;20076;-63
2022/01/17 12:18:50;;;;;;;9.93;7.03;;;4.60;20.60;;;;;;5016680;28;20055;-62
2022/01/17 12:21:32;;;;;;;11.23;7.47;;;4.40;21.20;;;;;;5033388;28;20116;-62
2022/01/17 12:24:40;;;;;;;11.45;7.32;;;4.50;21.70;;;;;;5100059;27;20590;-62
2022/01/17 12:27:19;;;;;;;10.90;6.72;;;4.40;20.80;;;;;;5099982;27;20047;-62
2022/01/17 12:29:56;;;;;;;12.23;7.25;;;4.50;21.70;;;;;;5105284;28;20063;-62
2022/01/17 12:32:50;;;;;;;10.70;7.25;;;4.40;20.50;;;;;;5103022;28;20134;-62
2022/01/17 12:35:31;;;;;;;10.48;6.95;;;4.40;20.50;;;;;;5101503;28;20058;-62
2022/01/17 12:38:09;;;;;;;12.75;8.30;;;4.30;20.70;;;;;;5104516;27;20070;-62
2022/01/17 12:40:57;;;;;;;11.57;7.68;;;4.30;21.10;;;;;;5107163;27;20051;-62
2022/01/17 12:43:32;;;;;;;13.43;7.70;;;4.40;20.40;;;;;;5103588;28;20035;-62
2022/01/17 12:46:02;;;;;;;12.05;7.65;;;4.40;21.20;;;;;;5099982;28;20046;-63
2022/01/17 12:48:33;;;;;;;11.13;7.85;;;4.60;21.00;;;;;;5103201;27;20615;-63
2022/01/17 12:51:06;;;;;;;11.80;7.72;;;4.60;19.40;;;;;;5102926;28;20055;-62
2022/01/17 12:53:35;;;;;;;12.18;8.25;;;4.60;18.00;;;;;;5101156;28;20569;-63
2022/01/17 12:56:06;;;;;;;13.05;7.97;;;4.50;18.10;;;;;;5101962;27;20047;-63
2022/01/17 12:58:37;;;;;;;11.30;7.72;;;4.60;18.90;;;;;;5099964;28;20109;-62
2022/01/17 13:01:08;;;;;;;15.70;8.60;;;4.70;18.70;;;;;;5104570;28;20043;-63
2022/01/17 13:03:40;;;;;;;13.05;7.85;;;4.70;18.10;;;;;;5102513;27;20047;-63
2022/01/17 13:06:12;;;;;;;14.02;8.05;;;4.70;17.70;;;;;;5101361;28;20051;-64
2022/01/17 13:08:42;;;;;;;14.52;7.95;;;4.70;17.90;;;;;;5104142;27;20043;-62
2022/01/17 13:14:01;;;;;;;10.27;6.63;;;4.60;17.80;;;;;;5104850;28;20043;-64
2022/01/17 13:16:34;;;;;;;14.85;8.38;;;4.60;16.30;;;;;;5101223;28;20097;-63
2022/01/17 13:19:03;;;;;;;12.50;7.13;;;4.70;17.20;;;;;;5103325;28;20062;-65
2022/01/17 13:21:32;;;;;;;12.32;7.20;;;4.50;17.00;;;;;;5105151;28;20055;-63
2022/01/17 13:24:12;;;;;;;13.65;7.38;;;4.60;17.80;;;;;;5103440;28;20147;-64